Terminal Aerodrome Forecast
Issued by NWS Jackson, KY

Home | Current Version | Previous Version | Text Only | Print | Product List | Glossary On
Versions: 1 2 3 4 5 6 7 8 9 10 11 12 13
000
FTUS43 KJKL 221138
TAFLOZ
TAF
KLOZ 221138Z 2212/2312 VRB06KT P6SM SCT080 BKN150
     FM221300 16004KT P6SM VCTS BKN120CB
     FM221700 18008KT 5SM SHRA BR VCTS OVC050CB
     FM222100 15006KT 3SM SHRA BR VCTS OVC030CB
     FM230500 18007KT P6SM VCTS SCT025 OVC040CB=

USA.gov is the U.S. government's official web portal to all federal, state and local government web resources and services.